sensor_id;sensor_type;location;lat;lon;timestamp;pressure;altitude;pressure_sealevel;temperature;humidity
46944;BME280;32678;43.852;25.952;2023-07-31T00:00:24;100471.91;;;27.14;52.37
46944;BME280;32678;43.852;25.952;2023-07-31T00:05:24;100470.41;;;27.11;51.94
46944;BME280;32678;43.852;25.952;2023-07-31T00:10:21;100487.16;;;26.97;50.78
46944;BME280;32678;43.852;25.952;2023-07-31T00:15:18;100480.88;;;26.89;52.59
46944;BME280;32678;43.852;25.952;2023-07-31T00:20:15;100466.78;;;26.87;51.81
46944;BME280;32678;43.852;25.952;2023-07-31T00:25:12;100474.72;;;26.96;51.27
46944;BME280;32678;43.852;25.952;2023-07-31T00:30:10;100477.81;;;26.84;51.54
46944;BME280;32678;43.852;25.952;2023-07-31T00:35:07;100487.13;;;26.89;51.91
46944;BME280;32678;43.852;25.952;2023-07-31T00:40:04;100477.44;;;26.79;52.14
46944;BME280;32678;43.852;25.952;2023-07-31T00:45:02;100476.03;;;26.58;51.88
46944;BME280;32678;43.852;25.952;2023-07-31T00:49:59;100472.00;;;26.62;53.28
46944;BME280;32678;43.852;25.952;2023-07-31T00:54:56;100473.00;;;26.87;53.43
46944;BME280;32678;43.852;25.952;2023-07-31T00:59:54;100468.53;;;26.78;53.71
46944;BME280;32678;43.852;25.952;2023-07-31T01:04:52;100460.00;;;26.83;53.86
46944;BME280;32678;43.852;25.952;2023-07-31T01:09:52;100454.75;;;27.07;53.98
46944;BME280;32678;43.852;25.952;2023-07-31T01:15:02;100453.13;;;26.88;53.24
46944;BME280;32678;43.852;25.952;2023-07-31T01:20:01;100448.66;;;26.63;55.67
46944;BME280;32678;43.852;25.952;2023-07-31T01:25:00;100444.69;;;26.49;56.52
46944;BME280;32678;43.852;25.952;2023-07-31T01:30:05;100443.66;;;26.16;56.04
46944;BME280;32678;43.852;25.952;2023-07-31T01:35:07;100432.31;;;26.05;57.73
46944;BME280;32678;43.852;25.952;2023-07-31T01:40:05;100447.13;;;25.65;60.54
46944;BME280;32678;43.852;25.952;2023-07-31T01:45:02;100456.66;;;25.15;63.89
46944;BME280;32678;43.852;25.952;2023-07-31T01:49:59;100470.06;;;25.15;66.58
46944;BME280;32678;43.852;25.952;2023-07-31T01:54:56;100474.72;;;24.85;70.55
46944;BME280;32678;43.852;25.952;2023-07-31T01:59:53;100482.28;;;24.26;74.71
46944;BME280;32678;43.852;25.952;2023-07-31T02:04:50;100488.28;;;24.47;75.42
46944;BME280;32678;43.852;25.952;2023-07-31T02:09:47;100484.50;;;24.30;77.30
46944;BME280;32678;43.852;25.952;2023-07-31T02:14:44;100486.91;;;24.33;78.15
46944;BME280;32678;43.852;25.952;2023-07-31T02:19:41;100496.16;;;24.48;77.29
46944;BME280;32678;43.852;25.952;2023-07-31T02:24:37;100503.50;;;24.46;78.21
46944;BME280;32678;43.852;25.952;2023-07-31T02:29:35;100511.59;;;24.37;77.79
46944;BME280;32678;43.852;25.952;2023-07-31T02:34:31;100524.53;;;24.41;77.79
46944;BME280;32678;43.852;25.952;2023-07-31T02:39:28;100524.84;;;24.38;78.05
46944;BME280;32678;43.852;25.952;2023-07-31T02:44:25;100530.06;;;24.11;79.20
46944;BME280;32678;43.852;25.952;2023-07-31T02:49:22;100527.41;;;24.21;80.45
46944;BME280;32678;43.852;25.952;2023-07-31T02:54:19;100528.22;;;24.31;79.04
46944;BME280;32678;43.852;25.952;2023-07-31T02:59:17;100521.59;;;24.15;80.91
46944;BME280;32678;43.852;25.952;2023-07-31T03:04:14;100528.38;;;24.20;81.46
46944;BME280;32678;43.852;25.952;2023-07-31T03:09:14;100525.22;;;24.53;79.54
46944;BME280;32678;43.852;25.952;2023-07-31T03:14:11;100517.69;;;24.66;78.57
46944;BME280;32678;43.852;25.952;2023-07-31T03:19:08;100525.25;;;24.43;79.01
46944;BME280;32678;43.852;25.952;2023-07-31T03:24:05;100523.69;;;24.41;79.96
46944;BME280;32678;43.852;25.952;2023-07-31T03:29:02;100524.94;;;24.56;78.90
46944;BME280;32678;43.852;25.952;2023-07-31T03:33:59;100523.34;;;24.73;78.38
46944;BME280;32678;43.852;25.952;2023-07-31T03:38:56;100524.13;;;24.83;77.74
46944;BME280;32678;43.852;25.952;2023-07-31T03:43:53;100527.09;;;24.80;78.82
46944;BME280;32678;43.852;25.952;2023-07-31T03:48:52;100519.53;;;25.02;77.87
46944;BME280;32678;43.852;25.952;2023-07-31T03:53:49;100515.41;;;25.08;77.34
46944;BME280;32678;43.852;25.952;2023-07-31T03:58:45;100524.81;;;25.22;79.06
46944;BME280;32678;43.852;25.952;2023-07-31T04:03:42;100525.53;;;24.96;78.38
46944;BME280;32678;43.852;25.952;2023-07-31T04:08:40;100541.56;;;25.06;79.24
46944;BME280;32678;43.852;25.952;2023-07-31T04:13:40;100539.94;;;25.68;76.75
46944;BME280;32678;43.852;25.952;2023-07-31T04:18:37;100542.16;;;26.08;73.60
46944;BME280;32678;43.852;25.952;2023-07-31T04:23:34;100547.28;;;25.66;74.48
46944;BME280;32678;43.852;25.952;2023-07-31T04:28:31;100549.22;;;25.56;77.07
46944;BME280;32678;43.852;25.952;2023-07-31T04:33:28;100555.06;;;25.69;76.21
46944;BME280;32678;43.852;25.952;2023-07-31T04:38:25;100559.66;;;25.31;77.08
46944;BME280;32678;43.852;25.952;2023-07-31T04:43:21;100550.81;;;25.21;78.84
46944;BME280;32678;43.852;25.952;2023-07-31T04:48:19;100545.72;;;24.81;79.61
46944;BME280;32678;43.852;25.952;2023-07-31T04:53:17;100551.63;;;24.85;80.86
46944;BME280;32678;43.852;25.952;2023-07-31T04:58:16;100561.91;;;24.99;80.42
46944;BME280;32678;43.852;25.952;2023-07-31T05:03:13;100565.75;;;24.96;80.26
46944;BME280;32678;43.852;25.952;2023-07-31T05:08:13;100560.38;;;24.96;81.37
46944;BME280;32678;43.852;25.952;2023-07-31T05:13:11;100559.94;;;25.28;80.32
46944;BME280;32678;43.852;25.952;2023-07-31T05:18:21;100564.38;;;25.20;80.01
46944;BME280;32678;43.852;25.952;2023-07-31T05:23:29;100566.97;;;25.12;80.31
46944;BME280;32678;43.852;25.952;2023-07-31T05:28:54;100563.63;;;25.00;79.92
46944;BME280;32678;43.852;25.952;2023-07-31T05:33:57;100551.94;;;24.82;79.91
46944;BME280;32678;43.852;25.952;2023-07-31T05:39:12;100578.22;;;25.15;79.01
46944;BME280;32678;43.852;25.952;2023-07-31T05:44:19;100577.66;;;25.21;79.74
46944;BME280;32678;43.852;25.952;2023-07-31T05:49:17;100587.31;;;25.32;77.85
46944;BME280;32678;43.852;25.952;2023-07-31T05:59:39;100585.56;;;25.13;77.95
46944;BME280;32678;43.852;25.952;2023-07-31T06:04:39;100583.69;;;25.23;79.05
46944;BME280;32678;43.852;25.952;2023-07-31T06:09:38;100593.06;;;25.37;78.34
46944;BME280;32678;43.852;25.952;2023-07-31T06:14:35;100597.00;;;25.15;79.54
46944;BME280;32678;43.852;25.952;2023-07-31T06:19:32;100600.31;;;24.99;80.28
46944;BME280;32678;43.852;25.952;2023-07-31T06:24:50;100599.88;;;25.04;81.39
46944;BME280;32678;43.852;25.952;2023-07-31T06:29:51;100611.69;;;25.48;80.41
46944;BME280;32678;43.852;25.952;2023-07-31T06:34:51;100626.19;;;26.00;78.29
46944;BME280;32678;43.852;25.952;2023-07-31T06:39:54;100615.00;;;26.05;77.52
46944;BME280;32678;43.852;25.952;2023-07-31T06:45:00;100621.47;;;26.29;75.93
46944;BME280;32678;43.852;25.952;2023-07-31T06:50:09;100587.84;;;26.43;74.67
46944;BME280;32678;43.852;25.952;2023-07-31T06:55:21;100609.47;;;26.85;71.86
46944;BME280;32678;43.852;25.952;2023-07-31T07:00:33;100619.41;;;27.10;70.63
46944;BME280;32678;43.852;25.952;2023-07-31T07:05:33;100614.88;;;27.11;69.29
46944;BME280;32678;43.852;25.952;2023-07-31T07:10:41;100619.81;;;27.24;69.04
46944;BME280;32678;43.852;25.952;2023-07-31T07:15:50;100627.47;;;27.44;68.19
46944;BME280;32678;43.852;25.952;2023-07-31T07:20:59;100643.41;;;27.38;67.75
46944;BME280;32678;43.852;25.952;2023-07-31T07:26:15;100638.38;;;27.69;67.03
46944;BME280;32678;43.852;25.952;2023-07-31T07:31:16;100638.72;;;27.74;66.38
46944;BME280;32678;43.852;25.952;2023-07-31T07:36:18;100650.84;;;27.78;66.75
46944;BME280;32678;43.852;25.952;2023-07-31T07:41:15;100655.91;;;27.81;66.35
46944;BME280;32678;43.852;25.952;2023-07-31T07:46:13;100645.31;;;27.79;66.55
46944;BME280;32678;43.852;25.952;2023-07-31T07:51:10;100651.69;;;27.70;67.01
46944;BME280;32678;43.852;25.952;2023-07-31T07:56:07;100654.59;;;27.93;66.07
46944;BME280;32678;43.852;25.952;2023-07-31T08:01:15;100664.38;;;27.94;64.40
46944;BME280;32678;43.852;25.952;2023-07-31T08:06:38;100666.28;;;28.10;64.40
46944;BME280;32678;43.852;25.952;2023-07-31T08:11:44;100668.59;;;27.96;64.53
46944;BME280;32678;43.852;25.952;2023-07-31T08:16:42;100683.44;;;28.09;63.55
46944;BME280;32678;43.852;25.952;2023-07-31T08:21:42;100673.56;;;28.17;61.77
46944;BME280;32678;43.852;25.952;2023-07-31T08:26:41;100675.84;;;28.04;60.67
46944;BME280;32678;43.852;25.952;2023-07-31T08:31:42;100672.81;;;28.07;61.99
46944;BME280;32678;43.852;25.952;2023-07-31T08:36:41;100665.06;;;28.04;62.38
46944;BME280;32678;43.852;25.952;2023-07-31T08:41:40;100665.69;;;27.82;62.91
46944;BME280;32678;43.852;25.952;2023-07-31T08:52:12;100676.25;;;28.25;61.44
46944;BME280;32678;43.852;25.952;2023-07-31T08:57:09;100678.13;;;28.33;60.69
46944;BME280;32678;43.852;25.952;2023-07-31T09:02:07;100676.53;;;28.06;61.57
46944;BME280;32678;43.852;25.952;2023-07-31T09:07:04;100686.03;;;28.18;61.62
46944;BME280;32678;43.852;25.952;2023-07-31T09:12:02;100680.38;;;27.95;62.14
46944;BME280;32678;43.852;25.952;2023-07-31T09:17:01;100679.94;;;28.16;62.17
46944;BME280;32678;43.852;25.952;2023-07-31T09:21:58;100678.63;;;28.28;64.05
46944;BME280;32678;43.852;25.952;2023-07-31T09:26:59;100674.59;;;28.40;62.49
46944;BME280;32678;43.852;25.952;2023-07-31T09:31:59;100675.25;;;28.26;62.02
46944;BME280;32678;43.852;25.952;2023-07-31T09:37:01;100666.81;;;28.21;63.69
46944;BME280;32678;43.852;25.952;2023-07-31T09:41:59;100672.19;;;28.21;63.72
46944;BME280;32678;43.852;25.952;2023-07-31T09:46:56;100676.94;;;28.19;63.75
46944;BME280;32678;43.852;25.952;2023-07-31T09:52:03;100677.78;;;28.20;62.15
46944;BME280;32678;43.852;25.952;2023-07-31T09:57:08;100679.34;;;27.88;62.24
46944;BME280;32678;43.852;25.952;2023-07-31T10:02:11;100675.81;;;27.88;62.45
46944;BME280;32678;43.852;25.952;2023-07-31T10:07:17;100675.03;;;27.02;65.20
46944;BME280;32678;43.852;25.952;2023-07-31T10:12:23;100675.22;;;26.83;65.66
46944;BME280;32678;43.852;25.952;2023-07-31T10:17:27;100666.41;;;26.55;67.70
46944;BME280;32678;43.852;25.952;2023-07-31T10:22:33;100660.31;;;26.70;67.37
46944;BME280;32678;43.852;25.952;2023-07-31T10:27:41;100663.19;;;26.95;66.37
46944;BME280;32678;43.852;25.952;2023-07-31T10:32:42;100657.75;;;26.43;69.35
46944;BME280;32678;43.852;25.952;2023-07-31T10:37:56;100645.78;;;25.93;71.81
46944;BME280;32678;43.852;25.952;2023-07-31T10:43:23;100651.47;;;26.07;72.00
46944;BME280;32678;43.852;25.952;2023-07-31T10:48:22;100642.22;;;25.74;73.14
46944;BME280;32678;43.852;25.952;2023-07-31T10:53:23;100641.91;;;25.77;73.89
46944;BME280;32678;43.852;25.952;2023-07-31T10:58:20;100635.03;;;26.10;74.34
46944;BME280;32678;43.852;25.952;2023-07-31T11:03:19;100625.56;;;26.34;71.53
46944;BME280;32678;43.852;25.952;2023-07-31T11:08:18;100623.81;;;26.15;71.42
46944;BME280;32678;43.852;25.952;2023-07-31T11:13:17;100613.09;;;26.50;70.41
46944;BME280;32678;43.852;25.952;2023-07-31T11:18:14;100625.69;;;26.50;68.74
46944;BME280;32678;43.852;25.952;2023-07-31T11:23:13;100621.56;;;26.63;69.07
46944;BME280;32678;43.852;25.952;2023-07-31T11:28:12;100617.28;;;26.70;68.14
46944;BME280;32678;43.852;25.952;2023-07-31T11:33:11;100611.03;;;26.26;70.47
46944;BME280;32678;43.852;25.952;2023-07-31T11:38:08;100602.13;;;26.26;70.97
46944;BME280;32678;43.852;25.952;2023-07-31T11:48:22;100596.59;;;25.92;71.01
46944;BME280;32678;43.852;25.952;2023-07-31T11:53:20;100590.47;;;26.00;70.24
46944;BME280;32678;43.852;25.952;2023-07-31T11:58:21;100593.88;;;26.45;69.23
46944;BME280;32678;43.852;25.952;2023-07-31T12:03:19;100572.63;;;26.16;69.93
46944;BME280;32678;43.852;25.952;2023-07-31T12:08:21;100592.97;;;26.01;70.48
46944;BME280;32678;43.852;25.952;2023-07-31T12:13:20;100590.75;;;25.97;71.43
46944;BME280;32678;43.852;25.952;2023-07-31T12:18:19;100596.81;;;26.16;70.36
46944;BME280;32678;43.852;25.952;2023-07-31T12:23:17;100577.00;;;26.17;68.83
46944;BME280;32678;43.852;25.952;2023-07-31T12:28:22;100584.78;;;26.03;68.46
46944;BME280;32678;43.852;25.952;2023-07-31T12:33:30;100585.22;;;25.98;68.37
46944;BME280;32678;43.852;25.952;2023-07-31T12:38:34;100590.22;;;26.11;67.82
46944;BME280;32678;43.852;25.952;2023-07-31T12:43:34;100594.22;;;25.89;68.38
46944;BME280;32678;43.852;25.952;2023-07-31T12:48:31;100589.31;;;25.84;68.77
46944;BME280;32678;43.852;25.952;2023-07-31T12:53:28;100586.28;;;26.41;66.33
46944;BME280;32678;43.852;25.952;2023-07-31T12:58:30;100583.63;;;26.66;63.83
46944;BME280;32678;43.852;25.952;2023-07-31T13:03:30;100578.41;;;26.65;62.91
46944;BME280;32678;43.852;25.952;2023-07-31T13:08:27;100568.34;;;26.67;62.29
46944;BME280;32678;43.852;25.952;2023-07-31T13:13:24;100569.84;;;26.69;62.63
46944;BME280;32678;43.852;25.952;2023-07-31T13:18:34;100556.66;;;27.10;58.81
46944;BME280;32678;43.852;25.952;2023-07-31T13:23:31;100557.84;;;27.49;57.45
46944;BME280;32678;43.852;25.952;2023-07-31T13:28:30;100557.00;;;27.57;55.76
46944;BME280;32678;43.852;25.952;2023-07-31T13:33:27;100564.28;;;27.23;56.56
46944;BME280;32678;43.852;25.952;2023-07-31T13:38:35;100565.25;;;27.13;56.36
46944;BME280;32678;43.852;25.952;2023-07-31T13:43:34;100576.00;;;27.05;57.99
46944;BME280;32678;43.852;25.952;2023-07-31T13:48:31;100573.56;;;26.94;57.88
46944;BME280;32678;43.852;25.952;2023-07-31T13:53:32;100551.38;;;26.66;58.49
46944;BME280;32678;43.852;25.952;2023-07-31T13:58:33;100570.81;;;26.60;58.82
46944;BME280;32678;43.852;25.952;2023-07-31T14:03:33;100570.44;;;27.07;56.75
46944;BME280;32678;43.852;25.952;2023-07-31T14:08:31;100567.69;;;26.99;56.20
46944;BME280;32678;43.852;25.952;2023-07-31T14:13:29;100557.22;;;27.22;56.06
46944;BME280;32678;43.852;25.952;2023-07-31T14:18:31;100523.91;;;27.23;55.41
46944;BME280;32678;43.852;25.952;2023-07-31T14:23:31;100541.41;;;27.69;54.52
46944;BME280;32678;43.852;25.952;2023-07-31T14:28:29;100544.22;;;27.51;55.28
46944;BME280;32678;43.852;25.952;2023-07-31T14:33:31;100553.69;;;27.71;54.92
46944;BME280;32678;43.852;25.952;2023-07-31T14:38:31;100540.91;;;27.81;53.43
46944;BME280;32678;43.852;25.952;2023-07-31T14:43:40;100541.06;;;27.96;51.76
46944;BME280;32678;43.852;25.952;2023-07-31T14:48:38;100519.03;;;27.92;51.60
46944;BME280;32678;43.852;25.952;2023-07-31T14:53:37;100536.84;;;27.61;52.65
46944;BME280;32678;43.852;25.952;2023-07-31T14:58:35;100541.69;;;27.49;54.71
46944;BME280;32678;43.852;25.952;2023-07-31T15:03:37;100528.81;;;27.85;53.03
46944;BME280;32678;43.852;25.952;2023-07-31T15:08:37;100528.81;;;28.10;51.17
46944;BME280;32678;43.852;25.952;2023-07-31T15:13:38;100525.44;;;28.32;51.09
46944;BME280;32678;43.852;25.952;2023-07-31T15:18:35;100512.97;;;28.31;50.62
46944;BME280;32678;43.852;25.952;2023-07-31T15:23:32;100511.78;;;28.41;50.49
46944;BME280;32678;43.852;25.952;2023-07-31T15:28:31;100506.16;;;28.59;50.39
46944;BME280;32678;43.852;25.952;2023-07-31T15:33:31;100496.75;;;28.63;50.77
46944;BME280;32678;43.852;25.952;2023-07-31T15:38:32;100505.47;;;28.65;50.67
46944;BME280;32678;43.852;25.952;2023-07-31T15:43:33;100515.63;;;28.71;52.13
46944;BME280;32678;43.852;25.952;2023-07-31T15:48:30;100508.03;;;28.59;54.06
46944;BME280;32678;43.852;25.952;2023-07-31T15:53:27;100512.44;;;28.35;55.44
46944;BME280;32678;43.852;25.952;2023-07-31T15:58:31;100523.44;;;28.18;57.80
46944;BME280;32678;43.852;25.952;2023-07-31T16:03:29;100531.19;;;28.29;58.06
46944;BME280;32678;43.852;25.952;2023-07-31T16:08:26;100525.63;;;28.14;58.80
46944;BME280;32678;43.852;25.952;2023-07-31T16:13:26;100519.38;;;28.22;59.23
46944;BME280;32678;43.852;25.952;2023-07-31T16:18:26;100538.06;;;28.07;59.47
46944;BME280;32678;43.852;25.952;2023-07-31T16:23:25;100559.56;;;27.67;60.83
46944;BME280;32678;43.852;25.952;2023-07-31T16:28:22;100565.38;;;27.46;60.11
46944;BME280;32678;43.852;25.952;2023-07-31T16:33:19;100572.44;;;27.47;60.71
46944;BME280;32678;43.852;25.952;2023-07-31T16:38:16;100568.19;;;27.86;59.68
46944;BME280;32678;43.852;25.952;2023-07-31T16:43:14;100545.31;;;27.98;57.57
46944;BME280;32678;43.852;25.952;2023-07-31T16:48:12;100567.53;;;27.92;57.04
46944;BME280;32678;43.852;25.952;2023-07-31T16:53:09;100559.47;;;28.17;55.77
46944;BME280;32678;43.852;25.952;2023-07-31T16:58:06;100551.91;;;28.12;55.87
46944;BME280;32678;43.852;25.952;2023-07-31T17:03:06;100548.50;;;28.02;54.77
46944;BME280;32678;43.852;25.952;2023-07-31T17:08:04;100566.91;;;28.15;53.25
46944;BME280;32678;43.852;25.952;2023-07-31T17:13:01;100563.88;;;28.18;52.51
46944;BME280;32678;43.852;25.952;2023-07-31T17:17:58;100568.94;;;28.29;52.29
46944;BME280;32678;43.852;25.952;2023-07-31T17:22:59;100576.16;;;28.53;51.97
46944;BME280;32678;43.852;25.952;2023-07-31T17:27:56;100574.44;;;28.76;50.42
46944;BME280;32678;43.852;25.952;2023-07-31T17:32:55;100566.69;;;28.81;50.30
46944;BME280;32678;43.852;25.952;2023-07-31T17:38:03;100577.13;;;28.92;50.52
46944;BME280;32678;43.852;25.952;2023-07-31T17:43:04;100581.13;;;29.04;49.80
46944;BME280;32678;43.852;25.952;2023-07-31T17:48:03;100585.81;;;29.10;49.98
46944;BME280;32678;43.852;25.952;2023-07-31T17:53:01;100589.81;;;29.22;49.85
46944;BME280;32678;43.852;25.952;2023-07-31T17:58:04;100587.13;;;29.22;50.07
46944;BME280;32678;43.852;25.952;2023-07-31T18:03:03;100592.53;;;29.31;49.76
46944;BME280;32678;43.852;25.952;2023-07-31T18:08:04;100609.22;;;29.34;49.28
46944;BME280;32678;43.852;25.952;2023-07-31T18:13:02;100616.84;;;29.31;49.64
46944;BME280;32678;43.852;25.952;2023-07-31T18:18:01;100624.59;;;29.25;49.85
46944;BME280;32678;43.852;25.952;2023-07-31T18:22:58;100628.13;;;29.26;50.28
46944;BME280;32678;43.852;25.952;2023-07-31T18:27:55;100639.25;;;29.39;52.01
46944;BME280;32678;43.852;25.952;2023-07-31T18:32:53;100642.97;;;29.30;53.27
46944;BME280;32678;43.852;25.952;2023-07-31T18:37:51;100648.41;;;29.22;54.31
46944;BME280;32678;43.852;25.952;2023-07-31T18:42:48;100651.28;;;29.20;56.00
46944;BME280;32678;43.852;25.952;2023-07-31T18:47:45;100646.41;;;29.08;55.56
46944;BME280;32678;43.852;25.952;2023-07-31T18:52:42;100649.94;;;29.08;55.46
46944;BME280;32678;43.852;25.952;2023-07-31T18:57:40;100655.34;;;29.16;53.38
46944;BME280;32678;43.852;25.952;2023-07-31T19:02:38;100657.06;;;29.01;52.99
46944;BME280;32678;43.852;25.952;2023-07-31T19:07:40;100659.09;;;28.91;55.04
46944;BME280;32678;43.852;25.952;2023-07-31T19:12:39;100660.94;;;28.91;56.84
46944;BME280;32678;43.852;25.952;2023-07-31T19:17:38;100666.53;;;28.81;57.21
46944;BME280;32678;43.852;25.952;2023-07-31T19:22:37;100671.06;;;28.48;58.81
46944;BME280;32678;43.852;25.952;2023-07-31T19:27:34;100690.00;;;27.56;60.65
46944;BME280;32678;43.852;25.952;2023-07-31T19:32:34;100669.16;;;27.66;61.22
46944;BME280;32678;43.852;25.952;2023-07-31T19:37:31;100685.09;;;27.93;61.17
46944;BME280;32678;43.852;25.952;2023-07-31T19:42:28;100681.03;;;27.89;61.45
46944;BME280;32678;43.852;25.952;2023-07-31T19:47:28;100695.88;;;27.93;61.05
46944;BME280;32678;43.852;25.952;2023-07-31T19:52:27;100683.34;;;27.76;61.29
46944;BME280;32678;43.852;25.952;2023-07-31T19:57:24;100675.16;;;27.52;62.14
46944;BME280;32678;43.852;25.952;2023-07-31T20:02:20;100667.72;;;27.46;62.35
46944;BME280;32678;43.852;25.952;2023-07-31T20:07:20;100669.72;;;27.44;61.68
46944;BME280;32678;43.852;25.952;2023-07-31T20:12:18;100669.91;;;26.91;63.25
46944;BME280;32678;43.852;25.952;2023-07-31T20:17:16;100675.31;;;26.38;63.56
46944;BME280;32678;43.852;25.952;2023-07-31T20:22:13;100674.00;;;26.59;61.91
46944;BME280;32678;43.852;25.952;2023-07-31T20:27:10;100666.00;;;26.50;62.03
46944;BME280;32678;43.852;25.952;2023-07-31T20:32:11;100632.22;;;26.47;62.18
46944;BME280;32678;43.852;25.952;2023-07-31T20:37:08;100665.72;;;26.53;62.38
46944;BME280;32678;43.852;25.952;2023-07-31T20:42:05;100671.31;;;26.59;62.03
46944;BME280;32678;43.852;25.952;2023-07-31T20:47:02;100675.59;;;26.17;62.70
46944;BME280;32678;43.852;25.952;2023-07-31T20:52:00;100685.09;;;26.39;61.83
46944;BME280;32678;43.852;25.952;2023-07-31T20:56:57;100692.44;;;26.54;61.17
46944;BME280;32678;43.852;25.952;2023-07-31T21:01:55;100702.97;;;26.48;61.06
46944;BME280;32678;43.852;25.952;2023-07-31T21:06:52;100709.81;;;26.42;61.49
46944;BME280;32678;43.852;25.952;2023-07-31T21:11:50;100720.09;;;26.64;60.38
46944;BME280;32678;43.852;25.952;2023-07-31T21:16:47;100712.44;;;26.87;59.89
46944;BME280;32678;43.852;25.952;2023-07-31T21:21:46;100694.13;;;26.91;59.38
46944;BME280;32678;43.852;25.952;2023-07-31T21:26:47;100700.53;;;26.98;59.20
46944;BME280;32678;43.852;25.952;2023-07-31T21:31:45;100687.19;;;26.88;59.47
46944;BME280;32678;43.852;25.952;2023-07-31T21:36:44;100716.81;;;27.14;58.43
46944;BME280;32678;43.852;25.952;2023-07-31T21:41:45;100707.25;;;27.20;57.91
46944;BME280;32678;43.852;25.952;2023-07-31T21:46:42;100704.56;;;27.20;57.48
46944;BME280;32678;43.852;25.952;2023-07-31T21:51:40;100707.91;;;26.88;59.03
46944;BME280;32678;43.852;25.952;2023-07-31T21:56:36;100702.69;;;27.12;58.02
46944;BME280;32678;43.852;25.952;2023-07-31T22:01:34;100704.44;;;26.42;60.20
46944;BME280;32678;43.852;25.952;2023-07-31T22:06:31;100710.94;;;26.40;59.85
46944;BME280;32678;43.852;25.952;2023-07-31T22:11:29;100705.09;;;26.80;59.14
46944;BME280;32678;43.852;25.952;2023-07-31T22:16:26;100687.09;;;26.98;58.13
46944;BME280;32678;43.852;25.952;2023-07-31T22:21:23;100697.59;;;27.09;57.77
46944;BME280;32678;43.852;25.952;2023-07-31T22:26:20;100693.09;;;26.74;58.03
46944;BME280;32678;43.852;25.952;2023-07-31T22:31:21;100690.81;;;26.26;59.55
46944;BME280;32678;43.852;25.952;2023-07-31T22:36:17;100686.91;;;26.56;58.92
46944;BME280;32678;43.852;25.952;2023-07-31T22:41:14;100674.03;;;26.85;58.17
46944;BME280;32678;43.852;25.952;2023-07-31T22:46:11;100672.13;;;26.78;57.74
46944;BME280;32678;43.852;25.952;2023-07-31T22:51:09;100667.53;;;26.88;57.73
46944;BME280;32678;43.852;25.952;2023-07-31T22:56:06;100676.44;;;27.14;57.68
46944;BME280;32678;43.852;25.952;2023-07-31T23:01:03;100673.53;;;27.33;55.56
46944;BME280;32678;43.852;25.952;2023-07-31T23:06:00;100672.16;;;27.29;55.84
46944;BME280;32678;43.852;25.952;2023-07-31T23:10:58;100674.16;;;27.27;55.96
46944;BME280;32678;43.852;25.952;2023-07-31T23:15:55;100667.09;;;27.26;56.20
46944;BME280;32678;43.852;25.952;2023-07-31T23:20:52;100656.94;;;27.12;56.85
46944;BME280;32678;43.852;25.952;2023-07-31T23:25:52;100666.03;;;26.93;59.04
46944;BME280;32678;43.852;25.952;2023-07-31T23:30:50;100659.69;;;27.28;59.09
46944;BME280;32678;43.852;25.952;2023-07-31T23:35:47;100659.91;;;27.35;58.72
46944;BME280;32678;43.852;25.952;2023-07-31T23:40:44;100659.28;;;27.41;59.43
46944;BME280;32678;43.852;25.952;2023-07-31T23:45:41;100661.69;;;27.52;59.14
46944;BME280;32678;43.852;25.952;2023-07-31T23:50:39;100662.38;;;27.54;59.03
46944;BME280;32678;43.852;25.952;2023-07-31T23:55:36;100656.72;;;27.39;59.85
